createdAt,value
2022-11-28T00:01:34.116Z,24.00
2022-11-28T00:04:03.503Z,20.30
2022-11-28T00:06:31.526Z,18.60
2022-11-28T00:08:59.926Z,18.40
2022-11-28T00:11:27.867Z,18.90
2022-11-28T00:13:55.979Z,20.30
2022-11-28T00:16:24.550Z,19.20
2022-11-28T00:18:55.134Z,21.10
2022-11-28T00:21:23.629Z,22.50
2022-11-28T00:23:52.640Z,23.60
2022-11-28T00:26:26.428Z,23.50
2022-11-28T00:28:56.625Z,22.70
2022-11-28T00:31:32.984Z,20.70
2022-11-28T00:34:04.597Z,18.30
2022-11-28T00:36:32.301Z,19.00
2022-11-28T00:39:00.098Z,18.80
2022-11-28T00:41:34.042Z,16.30
2022-11-28T00:44:01.908Z,16.30
2022-11-28T00:46:30.143Z,18.10
2022-11-28T00:48:59.493Z,17.70
2022-11-28T00:51:33.027Z,18.80
2022-11-28T00:54:03.998Z,17.30
2022-11-28T00:56:36.507Z,17.60
2022-11-28T00:59:04.816Z,18.00
2022-11-28T01:01:41.242Z,19.30
2022-11-28T01:04:13.156Z,16.80
2022-11-28T01:06:50.258Z,16.70
2022-11-28T01:09:24.033Z,17.10
2022-11-28T01:11:54.151Z,16.20
2022-11-28T01:14:24.563Z,15.70
2022-11-28T01:16:52.727Z,14.60
2022-11-28T01:19:21.327Z,15.70
2022-11-28T01:21:49.070Z,15.90
2022-11-28T01:24:17.807Z,13.90
2022-11-28T01:26:45.610Z,14.30
2022-11-28T01:29:13.295Z,14.90
2022-11-28T01:31:41.290Z,13.60
2022-11-28T01:34:09.370Z,15.80
2022-11-28T01:36:37.120Z,13.70
2022-11-28T01:39:04.964Z,15.50
2022-11-28T01:41:33.039Z,13.60
2022-11-28T01:44:05.030Z,12.40
2022-11-28T01:46:34.855Z,12.70
2022-11-28T01:49:22.546Z,12.40
2022-11-28T01:51:59.961Z,12.80
2022-11-28T01:54:31.910Z,11.90
2022-11-28T01:57:11.511Z,12.50
2022-11-28T01:59:58.624Z,15.50
2022-11-28T02:02:37.648Z,12.60
2022-11-28T02:05:07.602Z,11.60
2022-11-28T02:07:37.959Z,11.00
2022-11-28T02:10:10.972Z,10.60
2022-11-28T02:12:56.995Z,9.90
2022-11-28T02:16:02.241Z,10.80
2022-11-28T02:19:00.215Z,8.60
2022-11-28T02:21:53.598Z,10.70
2022-11-28T02:24:54.837Z,12.30
2022-11-28T02:27:46.939Z,11.90
2022-11-28T02:30:39.359Z,12.30
2022-11-28T02:33:17.492Z,12.20
2022-11-28T02:36:15.313Z,11.70
2022-11-28T02:39:07.352Z,11.10
2022-11-28T02:41:40.667Z,9.60
2022-11-28T02:44:34.791Z,8.80
2022-11-28T02:47:23.871Z,9.90
2022-11-28T02:50:15.478Z,11.10
2022-11-28T02:52:50.995Z,12.90
2022-11-28T02:55:20.312Z,14.60
2022-11-28T02:57:54.698Z,14.00
2022-11-28T03:00:30.046Z,13.90
2022-11-28T03:03:24.976Z,14.10
2022-11-28T03:06:16.024Z,12.50
2022-11-28T03:08:52.823Z,11.40
2022-11-28T03:11:28.855Z,13.30
2022-11-28T03:14:39.298Z,12.90
2022-11-28T03:17:44.357Z,13.00
2022-11-28T03:20:56.178Z,10.50
2022-11-28T03:23:43.406Z,12.50
2022-11-28T03:26:29.754Z,7.90
2022-11-28T03:29:11.769Z,11.40
2022-11-28T03:31:47.083Z,11.90
2022-11-28T03:34:20.520Z,14.30
2022-11-28T03:37:00.170Z,13.40
2022-11-28T03:39:40.293Z,12.10
2022-11-28T03:42:14.601Z,12.10
2022-11-28T03:45:14.114Z,12.10
2022-11-28T03:47:47.319Z,12.70
2022-11-28T03:50:27.975Z,13.50
2022-11-28T03:53:18.757Z,12.40
2022-11-28T03:56:10.032Z,15.10
2022-11-28T03:58:51.958Z,14.10
2022-11-28T04:01:34.621Z,12.80
2022-11-28T04:04:23.487Z,12.40
2022-11-28T04:06:56.287Z,11.70
2022-11-28T04:09:49.787Z,11.70
2022-11-28T04:12:40.115Z,13.00
2022-11-28T04:15:19.515Z,11.90
2022-11-28T04:17:58.454Z,13.40
2022-11-28T04:20:39.300Z,12.80
2022-11-28T04:23:13.483Z,12.70
2022-11-28T04:25:52.315Z,12.80
2022-11-28T04:28:25.758Z,15.40
2022-11-28T04:30:58.039Z,13.20
2022-11-28T04:33:31.305Z,12.00
2022-11-28T04:36:01.545Z,13.80
2022-11-28T04:38:31.537Z,13.90
2022-11-28T04:41:16.719Z,14.30
2022-11-28T04:44:01.139Z,13.30
2022-11-28T04:46:44.940Z,12.80
2022-11-28T04:49:14.192Z,12.10
2022-11-28T04:51:49.773Z,12.10
2022-11-28T04:54:31.762Z,14.70
2022-11-28T04:57:24.434Z,13.00
2022-11-28T04:59:53.651Z,14.00
2022-11-28T05:02:24.127Z,19.70
2022-11-28T05:04:55.640Z,34.70
2022-11-28T05:07:24.255Z,23.90
2022-11-28T05:09:52.107Z,20.80
2022-11-28T05:12:19.756Z,21.30
2022-11-28T05:14:47.476Z,14.40
2022-11-28T05:17:15.236Z,10.70
2022-11-28T05:19:42.870Z,12.70
2022-11-28T05:22:10.623Z,14.30
2022-11-28T05:24:38.302Z,12.30
2022-11-28T05:27:07.426Z,12.50
2022-11-28T05:29:35.255Z,12.20
2022-11-28T05:32:04.426Z,10.30
2022-11-28T05:34:32.275Z,12.20
2022-11-28T05:36:59.948Z,7.70
2022-11-28T05:39:27.984Z,11.40
2022-11-28T05:41:56.564Z,10.60
2022-11-28T05:44:26.999Z,13.40
2022-11-28T05:46:55.047Z,13.80
2022-11-28T05:49:24.012Z,12.30
2022-11-28T05:51:51.916Z,12.70
2022-11-28T05:54:19.805Z,13.40
2022-11-28T05:56:47.989Z,15.10
2022-11-28T05:59:15.665Z,21.20
2022-11-28T06:01:43.753Z,15.90
2022-11-28T06:04:11.570Z,13.90
2022-11-28T06:06:39.351Z,17.30
2022-11-28T06:09:07.570Z,19.90
2022-11-28T06:11:35.867Z,20.30
2022-11-28T06:14:03.811Z,15.10
2022-11-28T06:16:31.955Z,11.60
2022-11-28T06:19:03.883Z,11.00
2022-11-28T06:21:32.779Z,11.00
2022-11-28T06:24:00.825Z,9.30
2022-11-28T06:26:29.390Z,10.20
2022-11-28T06:28:57.154Z,11.80
2022-11-28T06:31:28.719Z,11.70
2022-11-28T06:33:58.680Z,11.70
2022-11-28T06:36:27.752Z,10.20
2022-11-28T06:38:55.416Z,11.20
2022-11-28T06:41:23.395Z,11.00
2022-11-28T06:43:51.252Z,12.00
2022-11-28T06:46:21.922Z,11.70
2022-11-28T06:48:51.995Z,12.70
2022-11-28T06:51:21.477Z,11.10
2022-11-28T06:53:50.101Z,13.20
2022-11-28T06:56:20.521Z,12.30
2022-11-28T06:58:56.219Z,10.50
2022-11-28T07:01:27.663Z,12.90
2022-11-28T07:03:55.994Z,12.60
2022-11-28T07:06:26.587Z,7.20
2022-11-28T07:08:58.611Z,12.50
2022-11-28T07:11:30.757Z,13.20
2022-11-28T07:14:01.780Z,13.20
2022-11-28T07:16:32.966Z,11.10
2022-11-28T07:19:01.298Z,12.00
2022-11-28T07:21:30.255Z,10.70
2022-11-28T07:23:59.853Z,10.90
2022-11-28T07:26:28.535Z,12.40
2022-11-28T07:28:58.360Z,9.50
2022-11-28T07:31:31.555Z,11.50
2022-11-28T07:34:03.537Z,12.00
2022-11-28T07:36:31.983Z,12.20
2022-11-28T07:39:03.226Z,11.10
2022-11-28T07:41:31.728Z,12.40
2022-11-28T07:44:03.633Z,12.50
2022-11-28T07:46:33.698Z,10.90
2022-11-28T07:49:02.143Z,10.20
2022-11-28T07:51:33.633Z,12.70
2022-11-28T07:54:03.581Z,12.90
2022-11-28T07:57:04.699Z,11.90
2022-11-28T07:59:23.719Z,13.30
2022-11-28T08:01:53.688Z,11.00
2022-11-28T08:04:21.897Z,11.90
2022-11-28T08:06:49.870Z,12.00
2022-11-28T08:09:17.678Z,11.60
2022-11-28T08:11:45.361Z,12.60
2022-11-28T08:14:14.226Z,13.30
2022-11-28T08:16:45.125Z,13.40
2022-11-28T08:19:13.485Z,11.70
2022-11-28T08:21:41.656Z,12.40
2022-11-28T08:24:11.691Z,13.70
2022-11-28T08:26:39.651Z,11.50
2022-11-28T08:29:07.471Z,12.00
2022-11-28T08:31:39.019Z,11.00
2022-11-28T08:34:10.686Z,12.50
2022-11-28T08:36:38.484Z,12.20
2022-11-28T08:39:23.530Z,12.40
2022-11-28T08:41:57.784Z,12.70
2022-11-28T08:44:30.459Z,14.70
2022-11-28T08:46:58.963Z,11.80
2022-11-28T08:49:26.740Z,13.10
2022-11-28T08:51:54.488Z,14.50
2022-11-28T08:54:22.200Z,14.00
2022-11-28T08:56:50.265Z,15.90
2022-11-28T08:59:18.188Z,16.60
2022-11-28T09:01:45.923Z,12.80
2022-11-28T09:04:14.032Z,14.60
2022-11-28T09:06:41.722Z,14.90
2022-11-28T09:09:10.136Z,14.20
2022-11-28T09:11:38.336Z,15.60
2022-11-28T09:14:06.564Z,14.70
2022-11-28T09:16:34.373Z,13.10
2022-11-28T09:19:02.117Z,16.20
2022-11-28T09:21:29.791Z,15.50
2022-11-28T09:23:57.528Z,14.60
2022-11-28T09:26:26.047Z,14.60
2022-11-28T09:28:54.983Z,15.10
2022-11-28T09:31:23.125Z,12.30
2022-11-28T09:33:51.107Z,14.70
2022-11-28T09:36:22.591Z,18.50
2022-11-28T09:38:51.356Z,17.20
2022-11-28T09:41:34.906Z,19.90
2022-11-28T09:44:21.833Z,16.90
2022-11-28T09:46:55.325Z,15.60
2022-11-28T09:49:41.850Z,17.20
2022-11-28T09:52:49.195Z,15.70
2022-11-28T09:55:27.201Z,7.50
2022-11-28T09:57:56.496Z,15.50
2022-11-28T10:00:44.554Z,17.80
2022-11-28T10:03:25.366Z,17.40
2022-11-28T10:06:33.728Z,13.20
2022-11-28T10:09:38.354Z,12.10
2022-11-28T10:12:47.513Z,16.70
2022-11-28T10:15:54.787Z,10.70
2022-11-28T10:18:22.466Z,11.60
2022-11-28T10:21:02.911Z,17.20
2022-11-28T10:23:46.930Z,14.90
2022-11-28T10:26:41.245Z,15.10
2022-11-28T10:29:26.388Z,13.70
2022-11-28T10:31:59.837Z,14.90
2022-11-28T10:34:36.436Z,14.30
2022-11-28T10:37:25.831Z,8.70
2022-11-28T10:39:56.053Z,18.30
2022-11-28T10:42:43.426Z,15.20
2022-11-28T10:45:48.168Z,15.60
2022-11-28T10:48:54.160Z,13.30
2022-11-28T10:51:53.304Z,11.10
2022-11-28T10:55:02.320Z,16.70
2022-11-28T10:58:06.615Z,13.30
2022-11-28T11:00:36.465Z,15.20
2022-11-28T11:03:09.304Z,15.30
2022-11-28T11:05:37.852Z,16.10
2022-11-28T11:08:35.236Z,14.60
2022-11-28T11:11:30.660Z,12.10
2022-11-28T11:14:07.763Z,17.10
2022-11-28T11:16:56.952Z,14.30
2022-11-28T11:19:34.046Z,13.70
2022-11-28T11:22:20.652Z,15.50
2022-11-28T11:25:16.160Z,15.80
2022-11-28T11:28:01.351Z,17.80
2022-11-28T11:30:42.838Z,14.40
2022-11-28T11:33:17.634Z,16.10
2022-11-28T11:35:49.458Z,14.40
2022-11-28T11:38:34.794Z,16.10
2022-11-28T11:41:29.827Z,16.50
2022-11-28T11:44:15.746Z,14.90
2022-11-28T11:46:55.670Z,14.20
2022-11-28T11:49:45.842Z,15.90
2022-11-28T11:52:14.014Z,17.20
2022-11-28T11:54:57.222Z,15.30
2022-11-28T11:57:36.999Z,16.30
2022-11-28T12:00:15.161Z,11.60
2022-11-28T12:02:59.515Z,11.10
2022-11-28T12:05:52.352Z,14.90
2022-11-28T12:08:38.112Z,15.70
2022-11-28T12:11:18.332Z,16.50
2022-11-28T12:13:46.616Z,16.40
2022-11-28T12:16:36.466Z,17.20
2022-11-28T12:19:32.332Z,14.90
2022-11-28T12:22:20.040Z,13.20
2022-11-28T12:25:09.560Z,14.30
2022-11-28T12:28:04.669Z,18.30
2022-11-28T12:30:52.581Z,18.70
2022-11-28T12:33:26.265Z,20.50
2022-11-28T12:36:21.398Z,18.10
2022-11-28T12:39:09.704Z,19.00
2022-11-28T12:42:28.260Z,18.20
2022-11-28T12:45:11.182Z,13.70
2022-11-28T12:48:02.947Z,16.30
2022-11-28T12:50:50.034Z,19.60
2022-11-28T12:53:41.182Z,21.50
2022-11-28T12:56:42.233Z,17.40
2022-11-28T12:59:22.363Z,17.90
2022-11-28T13:02:24.887Z,16.80
2022-11-28T13:05:21.650Z,18.20
2022-11-28T13:08:03.877Z,18.20
2022-11-28T13:10:59.108Z,16.90
2022-11-28T13:13:37.882Z,16.00
2022-11-28T13:16:42.977Z,15.60
2022-11-28T13:19:51.776Z,20.60
2022-11-28T13:22:28.598Z,17.90
2022-11-28T13:25:24.656Z,19.80
2022-11-28T13:28:15.782Z,19.00
2022-11-28T13:30:52.670Z,17.50
2022-11-28T13:33:38.315Z,18.80
2022-11-28T13:38:35.225Z,18.70
2022-11-28T13:39:35.734Z,15.10
2022-11-28T13:43:07.949Z,18.90
2022-11-28T13:45:42.465Z,16.10
2022-11-28T13:51:33.417Z,16.30
2022-11-28T13:54:17.168Z,13.80
2022-11-28T13:56:47.882Z,16.90
2022-11-28T13:59:25.367Z,16.60
2022-11-28T14:02:03.478Z,14.90
2022-11-28T14:04:33.146Z,18.60
2022-11-28T14:07:07.779Z,15.50
2022-11-28T14:10:05.293Z,12.90
2022-11-28T14:13:03.929Z,14.00
2022-11-28T14:15:46.012Z,14.40
2022-11-28T14:18:58.425Z,15.90
2022-11-28T14:22:12.448Z,13.80
2022-11-28T14:25:11.320Z,11.20
2022-11-28T14:27:48.751Z,15.00
2022-11-28T14:30:34.363Z,17.40
2022-11-28T14:33:16.476Z,21.90
2022-11-28T14:35:50.198Z,19.60
2022-11-28T14:38:30.099Z,15.30
2022-11-28T14:41:05.016Z,15.90
2022-11-28T14:43:36.252Z,18.00
2022-11-28T14:46:16.236Z,15.00
2022-11-28T14:49:17.495Z,19.90
2022-11-28T14:51:48.224Z,21.60
2022-11-28T14:54:38.434Z,18.90
2022-11-28T14:57:26.885Z,18.40
2022-11-28T14:59:58.286Z,22.40
2022-11-28T15:03:04.239Z,22.30
2022-11-28T15:05:49.854Z,25.50
2022-11-28T15:08:23.415Z,22.10
2022-11-28T15:11:10.982Z,20.20
2022-11-28T15:14:07.282Z,20.90
2022-11-28T15:16:45.234Z,20.10
2022-11-28T15:19:20.280Z,18.90
2022-11-28T15:21:51.407Z,19.30
2022-11-28T15:24:27.331Z,25.00
2022-11-28T15:27:16.320Z,23.40
2022-11-28T15:29:55.384Z,24.40
2022-11-28T15:32:26.150Z,24.70
2022-11-28T15:35:00.629Z,19.30
2022-11-28T15:37:35.360Z,22.20
2022-11-28T15:40:06.069Z,23.40
2022-11-28T15:42:36.424Z,22.70
2022-11-28T15:45:24.672Z,20.50
2022-11-28T15:47:54.644Z,20.60
2022-11-28T15:50:27.303Z,21.40
2022-11-28T15:53:00.414Z,17.50
2022-11-28T15:55:32.563Z,19.00
2022-11-28T15:58:23.572Z,20.70
2022-11-28T16:01:20.208Z,17.50
2022-11-28T16:04:00.715Z,21.90
2022-11-28T16:06:36.418Z,19.00
2022-11-28T16:09:23.167Z,20.30
2022-11-28T16:11:53.879Z,20.40
2022-11-28T16:14:29.306Z,19.60
2022-11-28T16:16:59.339Z,17.10
2022-11-28T16:19:35.224Z,14.10
2022-11-28T16:22:10.215Z,17.10
2022-11-28T16:24:57.162Z,20.30
2022-11-28T16:27:36.608Z,18.70
2022-11-28T16:30:33.567Z,19.50
2022-11-28T16:33:01.843Z,22.20
2022-11-28T16:35:40.331Z,21.00
2022-11-28T16:38:16.571Z,22.80
2022-11-28T16:40:44.913Z,20.90
2022-11-28T16:43:35.959Z,17.40
2022-11-28T16:46:08.152Z,22.00
2022-11-28T16:48:46.972Z,21.70
2022-11-28T16:51:14.858Z,22.20
2022-11-28T16:53:51.064Z,18.50
2022-11-28T16:56:31.045Z,19.40
2022-11-28T16:59:07.956Z,16.90
2022-11-28T17:01:36.501Z,14.10
2022-11-28T17:04:05.248Z,17.00
2022-11-28T17:06:39.170Z,17.50
2022-11-28T17:09:11.400Z,18.50
2022-11-28T17:11:47.395Z,23.20
2022-11-28T17:14:15.129Z,31.70
2022-11-28T17:16:44.458Z,26.70
2022-11-28T17:19:12.946Z,31.80
2022-11-28T17:22:02.961Z,18.40
2022-11-28T17:24:35.462Z,18.20
2022-11-28T17:27:04.116Z,19.20
2022-11-28T17:29:31.774Z,18.40
2022-11-28T17:32:02.155Z,16.40
2022-11-28T17:34:34.022Z,16.40
2022-11-28T17:37:03.198Z,16.80
2022-11-28T17:39:31.331Z,18.80
2022-11-28T17:41:59.227Z,16.40
2022-11-28T17:44:30.714Z,13.70
2022-11-28T17:47:00.784Z,17.70
2022-11-28T17:49:30.719Z,16.90
2022-11-28T17:51:58.894Z,18.40
2022-11-28T17:54:27.506Z,17.10
2022-11-28T17:56:56.301Z,17.20
2022-11-28T17:59:24.721Z,15.00
2022-11-28T18:01:52.925Z,15.10
2022-11-28T18:04:20.912Z,13.80
2022-11-28T18:06:48.939Z,17.20
2022-11-28T18:09:16.608Z,18.80
2022-11-28T18:11:46.458Z,17.70
2022-11-28T18:14:19.254Z,14.30
2022-11-28T18:16:47.611Z,16.90
2022-11-28T18:19:15.597Z,18.40
2022-11-28T18:21:43.284Z,16.60
2022-11-28T18:24:10.985Z,17.90
2022-11-28T18:26:39.170Z,22.10
2022-11-28T18:29:07.398Z,19.30
2022-11-28T18:31:35.847Z,18.00
2022-11-28T18:34:07.610Z,18.90
2022-11-28T18:36:38.188Z,21.80
2022-11-28T18:39:11.496Z,21.90
2022-11-28T18:41:40.067Z,31.90
2022-11-28T18:44:08.274Z,20.30
2022-11-28T18:46:36.017Z,21.10
2022-11-28T18:49:03.788Z,21.70
2022-11-28T18:51:34.462Z,22.50
2022-11-28T18:54:05.135Z,18.60
2022-11-28T18:56:33.203Z,19.30
2022-11-28T18:59:01.073Z,18.00
2022-11-28T19:01:33.104Z,16.80
2022-11-28T19:04:11.003Z,19.30
2022-11-28T19:06:40.618Z,19.30
2022-11-28T19:09:14.221Z,19.20
2022-11-28T19:11:43.223Z,19.90
2022-11-28T19:14:16.407Z,19.20
2022-11-28T19:16:45.745Z,20.10
2022-11-28T19:19:17.097Z,22.60
2022-11-28T19:21:44.817Z,23.60
2022-11-28T19:24:13.857Z,20.20
2022-11-28T19:26:41.867Z,20.00
2022-11-28T19:29:09.703Z,26.10
2022-11-28T19:31:39.315Z,25.80
2022-11-28T19:34:13.907Z,24.10
2022-11-28T19:36:48.279Z,19.80
2022-11-28T19:39:24.944Z,21.10
2022-11-28T19:41:54.823Z,18.50
2022-11-28T19:44:24.806Z,20.30
2022-11-28T19:46:53.417Z,24.80
2022-11-28T19:49:23.858Z,24.50
2022-11-28T19:51:52.546Z,23.20
2022-11-28T19:54:20.970Z,22.30
2022-11-28T19:56:50.134Z,22.60
2022-11-28T19:59:19.418Z,21.20
2022-11-28T20:01:49.868Z,24.70
2022-11-28T20:04:17.796Z,23.60
2022-11-28T20:06:45.615Z,21.30
2022-11-28T20:09:14.013Z,20.30
2022-11-28T20:11:43.184Z,23.10
2022-11-28T20:14:17.403Z,23.50
2022-11-28T20:16:46.719Z,23.10
2022-11-28T20:19:15.180Z,21.10
2022-11-28T20:21:42.872Z,27.00
2022-11-28T20:24:10.735Z,23.00
2022-11-28T20:26:42.584Z,21.10
2022-11-28T20:29:15.971Z,20.50
2022-11-28T20:31:47.126Z,19.20
2022-11-28T20:34:17.700Z,22.70
2022-11-28T20:36:50.138Z,24.50
2022-11-28T20:39:17.873Z,20.40
2022-11-28T20:41:45.591Z,22.50
2022-11-28T20:44:13.411Z,24.70
2022-11-28T20:46:43.360Z,24.00
2022-11-28T20:49:11.207Z,23.50
2022-11-28T20:51:39.700Z,24.00
2022-11-28T20:54:07.424Z,22.30
2022-11-28T20:57:05.152Z,29.50
2022-11-28T20:59:27.199Z,28.00
2022-11-28T21:01:55.045Z,23.90
2022-11-28T21:04:22.739Z,28.20
2022-11-28T21:06:50.448Z,21.60
2022-11-28T21:09:20.381Z,22.60
2022-11-28T21:11:58.489Z,20.40
2022-11-28T21:14:29.241Z,25.20
2022-11-28T21:16:58.619Z,20.10
2022-11-28T21:19:26.839Z,24.10
2022-11-28T21:21:54.618Z,26.00
2022-11-28T21:24:22.449Z,24.60
2022-11-28T21:26:53.869Z,25.80
2022-11-28T21:29:24.669Z,23.70
2022-11-28T21:31:53.788Z,27.20
2022-11-28T21:34:22.980Z,28.30
2022-11-28T21:36:51.301Z,24.20
2022-11-28T21:39:20.619Z,23.80
2022-11-28T21:41:48.984Z,21.90
2022-11-28T21:44:16.842Z,20.90
2022-11-28T21:46:44.645Z,25.40
2022-11-28T21:49:12.800Z,24.20
2022-11-28T21:51:41.098Z,24.20
2022-11-28T21:54:13.404Z,22.50
2022-11-28T21:56:41.305Z,25.00
2022-11-28T21:59:09.225Z,24.60
2022-11-28T22:01:37.002Z,25.70
2022-11-28T22:04:05.660Z,29.50
2022-11-28T22:06:33.768Z,23.20
2022-11-28T22:09:09.121Z,27.10
2022-11-28T22:11:39.135Z,25.30
2022-11-28T22:14:06.989Z,36.60
2022-11-28T22:16:34.666Z,34.70
2022-11-28T22:19:02.324Z,29.20
2022-11-28T22:24:18.169Z,20.70
2022-11-28T22:26:46.112Z,24.70
2022-11-28T22:29:14.867Z,25.50
2022-11-28T22:31:42.637Z,23.30
2022-11-28T22:34:10.603Z,22.10
2022-11-28T22:36:38.633Z,22.60
2022-11-28T22:39:06.564Z,28.20
2022-11-28T22:41:34.211Z,27.40
2022-11-28T22:44:04.311Z,27.10
2022-11-28T22:46:33.088Z,27.90
2022-11-28T22:49:01.701Z,23.10
2022-11-28T22:51:30.989Z,22.90
2022-11-28T22:54:01.851Z,30.10
2022-11-28T22:56:33.359Z,32.30
2022-11-28T22:59:01.154Z,28.10
2022-11-28T23:01:32.452Z,34.30
2022-11-28T23:04:00.539Z,33.90
2022-11-28T23:06:33.018Z,28.00
2022-11-28T23:09:06.475Z,25.80
2022-11-28T23:11:37.647Z,24.90
2022-11-28T23:14:06.498Z,23.70
2022-11-28T23:16:38.832Z,25.40
2022-11-28T23:19:11.923Z,26.60
2022-11-28T23:21:42.763Z,24.80
2022-11-28T23:24:17.382Z,22.30
2022-11-28T23:26:45.661Z,23.10
2022-11-28T23:29:14.704Z,20.80
2022-11-28T23:31:43.935Z,22.50
2022-11-28T23:34:12.147Z,21.20
2022-11-28T23:36:43.264Z,19.80
2022-11-28T23:39:21.432Z,20.60
2022-11-28T23:41:50.225Z,21.50
2022-11-28T23:44:19.753Z,22.50
2022-11-28T23:46:48.378Z,24.90
2022-11-28T23:49:16.902Z,20.90
2022-11-28T23:51:44.587Z,21.30
2022-11-28T23:54:12.962Z,21.60
2022-11-28T23:56:42.077Z,22.30
2022-11-28T23:59:11.985Z,24.30
